Independence, California
Current Conditions -  °F | °C
As of 8:56 PM on Saturday 22 Nov 2014 (Local Time) from KBIH Reporting Station
Clear Clear  
Wind Chill: 53°   Ceiling: Unl
Heat Index: 53°   Visibility: 10mi
Dew Point: 18°   Wind: 24mph
Humidity: 25%   Direction: 10°N
Pressure: 30.04"   Gusts: 31mph
Location:  36.8°N, 118.2°W
Report Text: KBIH 230456Z AUTO 01021G27KT 10SM CLR 12/M08 A3004 RMK AO2 PK WND 01027/0455 SLP153 T01171078
Loading
Personal Weather Stations






























Interactive Weather Map New forecast layout! Learn more

10-Day Weather Forecast

Advertisements
Track Severe Weather on mobile